sensor_id;sensor_type;location;lat;lon;timestamp;P1;durP1;ratioP1;P2;durP2;ratioP2
15159;SDS011;7680;48.800;9.680;2023-02-10T00:01:02;40.13;;;27.70;;
15159;SDS011;7680;48.800;9.680;2023-02-10T00:03:36;38.87;;;26.23;;
15159;SDS011;7680;48.800;9.680;2023-02-10T00:06:10;44.47;;;27.03;;
15159;SDS011;7680;48.800;9.680;2023-02-10T00:08:45;43.03;;;27.80;;
15159;SDS011;7680;48.800;9.680;2023-02-10T00:11:19;47.30;;;29.57;;
15159;SDS011;7680;48.800;9.680;2023-02-10T00:14:14;49.47;;;29.87;;
15159;SDS011;7680;48.800;9.680;2023-02-10T00:16:50;44.83;;;27.27;;
15159;SDS011;7680;48.800;9.680;2023-02-10T00:19:25;38.73;;;26.80;;
15159;SDS011;7680;48.800;9.680;2023-02-10T00:22:02;38.43;;;26.53;;
15159;SDS011;7680;48.800;9.680;2023-02-10T00:24:35;40.07;;;25.07;;
15159;SDS011;7680;48.800;9.680;2023-02-10T00:27:08;44.17;;;28.67;;
15159;SDS011;7680;48.800;9.680;2023-02-10T00:29:42;47.50;;;29.00;;
15159;SDS011;7680;48.800;9.680;2023-02-10T00:32:17;40.10;;;26.60;;
15159;SDS011;7680;48.800;9.680;2023-02-10T00:34:50;38.10;;;26.17;;
15159;SDS011;7680;48.800;9.680;2023-02-10T00:37:23;39.07;;;25.33;;
15159;SDS011;7680;48.800;9.680;2023-02-10T00:39:56;35.57;;;25.50;;
15159;SDS011;7680;48.800;9.680;2023-02-10T00:42:31;36.87;;;26.73;;
15159;SDS011;7680;48.800;9.680;2023-02-10T00:45:04;37.90;;;26.23;;
15159;SDS011;7680;48.800;9.680;2023-02-10T00:47:39;38.10;;;25.67;;
15159;SDS011;7680;48.800;9.680;2023-02-10T00:50:12;41.00;;;27.13;;
15159;SDS011;7680;48.800;9.680;2023-02-10T00:52:45;39.63;;;25.80;;
15159;SDS011;7680;48.800;9.680;2023-02-10T00:55:18;40.20;;;26.13;;
15159;SDS011;7680;48.800;9.680;2023-02-10T00:57:52;38.70;;;25.50;;
15159;SDS011;7680;48.800;9.680;2023-02-10T01:00:25;41.60;;;26.83;;
15159;SDS011;7680;48.800;9.680;2023-02-10T01:02:59;36.87;;;24.27;;
15159;SDS011;7680;48.800;9.680;2023-02-10T01:05:33;38.13;;;25.77;;
15159;SDS011;7680;48.800;9.680;2023-02-10T01:08:06;36.83;;;25.17;;
15159;SDS011;7680;48.800;9.680;2023-02-10T01:10:39;38.70;;;25.90;;
15159;SDS011;7680;48.800;9.680;2023-02-10T01:13:14;35.87;;;24.63;;
15159;SDS011;7680;48.800;9.680;2023-02-10T01:15:47;37.00;;;25.83;;
15159;SDS011;7680;48.800;9.680;2023-02-10T01:18:22;35.53;;;24.00;;
15159;SDS011;7680;48.800;9.680;2023-02-10T01:20:56;40.03;;;26.87;;
15159;SDS011;7680;48.800;9.680;2023-02-10T01:23:30;36.17;;;24.90;;
15159;SDS011;7680;48.800;9.680;2023-02-10T01:26:03;39.77;;;26.30;;
15159;SDS011;7680;48.800;9.680;2023-02-10T01:28:36;38.10;;;25.67;;
15159;SDS011;7680;48.800;9.680;2023-02-10T01:31:10;40.73;;;26.50;;
15159;SDS011;7680;48.800;9.680;2023-02-10T01:33:49;36.53;;;24.87;;
15159;SDS011;7680;48.800;9.680;2023-02-10T01:36:24;41.37;;;27.87;;
15159;SDS011;7680;48.800;9.680;2023-02-10T01:38:58;41.00;;;27.30;;
15159;SDS011;7680;48.800;9.680;2023-02-10T01:41:31;38.47;;;27.70;;
15159;SDS011;7680;48.800;9.680;2023-02-10T01:44:05;40.00;;;27.47;;
15159;SDS011;7680;48.800;9.680;2023-02-10T01:47:18;40.77;;;27.53;;
15159;SDS011;7680;48.800;9.680;2023-02-10T01:49:55;44.40;;;27.27;;
15159;SDS011;7680;48.800;9.680;2023-02-10T01:52:28;37.43;;;26.37;;
15159;SDS011;7680;48.800;9.680;2023-02-10T01:55:04;40.83;;;26.00;;
15159;SDS011;7680;48.800;9.680;2023-02-10T01:57:40;39.40;;;26.80;;
15159;SDS011;7680;48.800;9.680;2023-02-10T02:00:16;38.80;;;26.67;;
15159;SDS011;7680;48.800;9.680;2023-02-10T02:02:49;38.23;;;26.57;;
15159;SDS011;7680;48.800;9.680;2023-02-10T02:05:31;40.80;;;27.40;;
15159;SDS011;7680;48.800;9.680;2023-02-10T02:08:07;42.43;;;27.43;;
15159;SDS011;7680;48.800;9.680;2023-02-10T02:10:58;37.07;;;25.67;;
15159;SDS011;7680;48.800;9.680;2023-02-10T02:16:46;37.30;;;26.40;;
15159;SDS011;7680;48.800;9.680;2023-02-10T02:19:47;40.23;;;27.10;;
15159;SDS011;7680;48.800;9.680;2023-02-10T02:26:16;40.63;;;25.67;;
15159;SDS011;7680;48.800;9.680;2023-02-10T02:29:21;39.77;;;24.53;;
15159;SDS011;7680;48.800;9.680;2023-02-10T02:32:23;38.00;;;24.87;;
15159;SDS011;7680;48.800;9.680;2023-02-10T02:35:01;37.33;;;24.87;;
15159;SDS011;7680;48.800;9.680;2023-02-10T02:37:38;34.87;;;23.43;;
15159;SDS011;7680;48.800;9.680;2023-02-10T02:40:14;36.87;;;24.67;;
15159;SDS011;7680;48.800;9.680;2023-02-10T02:42:49;38.60;;;26.23;;
15159;SDS011;7680;48.800;9.680;2023-02-10T02:45:24;37.87;;;25.03;;
15159;SDS011;7680;48.800;9.680;2023-02-10T02:48:08;39.23;;;25.87;;
15159;SDS011;7680;48.800;9.680;2023-02-10T02:50:55;36.83;;;25.47;;
15159;SDS011;7680;48.800;9.680;2023-02-10T02:53:37;40.03;;;25.73;;
15159;SDS011;7680;48.800;9.680;2023-02-10T02:56:20;35.07;;;23.83;;
15159;SDS011;7680;48.800;9.680;2023-02-10T03:02:05;36.07;;;24.43;;
15159;SDS011;7680;48.800;9.680;2023-02-10T03:04:44;36.93;;;24.97;;
15159;SDS011;7680;48.800;9.680;2023-02-10T03:07:17;38.33;;;25.93;;
15159;SDS011;7680;48.800;9.680;2023-02-10T03:09:50;35.33;;;24.47;;
15159;SDS011;7680;48.800;9.680;2023-02-10T03:12:23;38.33;;;26.53;;
15159;SDS011;7680;48.800;9.680;2023-02-10T03:14:57;37.77;;;25.60;;
15159;SDS011;7680;48.800;9.680;2023-02-10T03:17:30;36.67;;;25.77;;
15159;SDS011;7680;48.800;9.680;2023-02-10T03:20:05;41.87;;;26.47;;
15159;SDS011;7680;48.800;9.680;2023-02-10T03:22:40;38.27;;;25.60;;
15159;SDS011;7680;48.800;9.680;2023-02-10T03:25:14;39.33;;;26.63;;
15159;SDS011;7680;48.800;9.680;2023-02-10T03:27:47;41.30;;;27.33;;
15159;SDS011;7680;48.800;9.680;2023-02-10T03:30:20;41.80;;;27.30;;
15159;SDS011;7680;48.800;9.680;2023-02-10T03:32:53;44.23;;;27.90;;
15159;SDS011;7680;48.800;9.680;2023-02-10T03:35:28;41.93;;;29.43;;
15159;SDS011;7680;48.800;9.680;2023-02-10T03:38:02;44.53;;;28.83;;
15159;SDS011;7680;48.800;9.680;2023-02-10T03:40:35;47.93;;;31.83;;
15159;SDS011;7680;48.800;9.680;2023-02-10T03:43:08;44.60;;;29.83;;
15159;SDS011;7680;48.800;9.680;2023-02-10T03:45:42;42.37;;;27.40;;
15159;SDS011;7680;48.800;9.680;2023-02-10T03:48:15;41.63;;;27.17;;
15159;SDS011;7680;48.800;9.680;2023-02-10T03:50:49;39.23;;;26.27;;
15159;SDS011;7680;48.800;9.680;2023-02-10T03:53:23;43.47;;;26.23;;
15159;SDS011;7680;48.800;9.680;2023-02-10T03:55:56;45.23;;;28.13;;
15159;SDS011;7680;48.800;9.680;2023-02-10T03:58:29;40.67;;;27.80;;
15159;SDS011;7680;48.800;9.680;2023-02-10T04:01:07;41.30;;;27.60;;
15159;SDS011;7680;48.800;9.680;2023-02-10T04:03:43;41.57;;;29.20;;
15159;SDS011;7680;48.800;9.680;2023-02-10T04:06:18;43.00;;;28.60;;
15159;SDS011;7680;48.800;9.680;2023-02-10T04:08:51;41.47;;;28.60;;
15159;SDS011;7680;48.800;9.680;2023-02-10T04:11:24;43.17;;;28.00;;
15159;SDS011;7680;48.800;9.680;2023-02-10T04:13:57;41.50;;;27.63;;
15159;SDS011;7680;48.800;9.680;2023-02-10T04:16:30;38.63;;;26.80;;
15159;SDS011;7680;48.800;9.680;2023-02-10T04:19:04;46.13;;;28.57;;
15159;SDS011;7680;48.800;9.680;2023-02-10T04:21:39;42.70;;;28.70;;
15159;SDS011;7680;48.800;9.680;2023-02-10T04:24:12;38.73;;;28.03;;
15159;SDS011;7680;48.800;9.680;2023-02-10T04:26:45;42.53;;;28.17;;
15159;SDS011;7680;48.800;9.680;2023-02-10T04:29:18;43.13;;;28.87;;
15159;SDS011;7680;48.800;9.680;2023-02-10T04:31:51;43.00;;;28.33;;
15159;SDS011;7680;48.800;9.680;2023-02-10T04:34:24;40.87;;;28.17;;
15159;SDS011;7680;48.800;9.680;2023-02-10T04:36:59;40.80;;;27.37;;
15159;SDS011;7680;48.800;9.680;2023-02-10T04:39:32;43.13;;;29.03;;
15159;SDS011;7680;48.800;9.680;2023-02-10T04:42:05;43.83;;;29.03;;
15159;SDS011;7680;48.800;9.680;2023-02-10T04:44:38;46.73;;;29.90;;
15159;SDS011;7680;48.800;9.680;2023-02-10T04:47:11;47.43;;;31.47;;
15159;SDS011;7680;48.800;9.680;2023-02-10T04:49:44;45.70;;;29.73;;
15159;SDS011;7680;48.800;9.680;2023-02-10T04:52:19;45.23;;;29.97;;
15159;SDS011;7680;48.800;9.680;2023-02-10T04:54:53;39.40;;;28.40;;
15159;SDS011;7680;48.800;9.680;2023-02-10T04:57:26;45.77;;;31.93;;
15159;SDS011;7680;48.800;9.680;2023-02-10T04:59:59;44.37;;;29.30;;
15159;SDS011;7680;48.800;9.680;2023-02-10T05:02:32;40.87;;;26.70;;
15159;SDS011;7680;48.800;9.680;2023-02-10T05:05:06;39.47;;;27.63;;
15159;SDS011;7680;48.800;9.680;2023-02-10T05:07:41;43.93;;;29.00;;
15159;SDS011;7680;48.800;9.680;2023-02-10T05:10:14;40.83;;;28.43;;
15159;SDS011;7680;48.800;9.680;2023-02-10T05:12:47;43.87;;;29.07;;
15159;SDS011;7680;48.800;9.680;2023-02-10T05:15:22;44.17;;;28.50;;
15159;SDS011;7680;48.800;9.680;2023-02-10T05:17:55;44.77;;;29.10;;
15159;SDS011;7680;48.800;9.680;2023-02-10T05:20:28;42.40;;;28.70;;
15159;SDS011;7680;48.800;9.680;2023-02-10T05:23:03;38.70;;;27.37;;
15159;SDS011;7680;48.800;9.680;2023-02-10T05:25:36;41.07;;;28.87;;
15159;SDS011;7680;48.800;9.680;2023-02-10T05:28:09;46.43;;;29.40;;
15159;SDS011;7680;48.800;9.680;2023-02-10T05:30:42;47.47;;;30.77;;
15159;SDS011;7680;48.800;9.680;2023-02-10T05:33:15;44.13;;;30.00;;
15159;SDS011;7680;48.800;9.680;2023-02-10T05:35:48;43.67;;;30.43;;
15159;SDS011;7680;48.800;9.680;2023-02-10T05:38:23;44.07;;;29.33;;
15159;SDS011;7680;48.800;9.680;2023-02-10T05:40:57;43.23;;;29.50;;
15159;SDS011;7680;48.800;9.680;2023-02-10T05:43:30;44.30;;;30.60;;
15159;SDS011;7680;48.800;9.680;2023-02-10T05:46:04;49.07;;;32.40;;
15159;SDS011;7680;48.800;9.680;2023-02-10T05:48:37;45.63;;;30.13;;
15159;SDS011;7680;48.800;9.680;2023-02-10T05:51:10;47.33;;;30.27;;
15159;SDS011;7680;48.800;9.680;2023-02-10T05:53:44;41.27;;;29.43;;
15159;SDS011;7680;48.800;9.680;2023-02-10T05:56:17;40.53;;;29.63;;
15159;SDS011;7680;48.800;9.680;2023-02-10T05:58:51;42.33;;;29.30;;
15159;SDS011;7680;48.800;9.680;2023-02-10T06:01:24;42.93;;;29.63;;
15159;SDS011;7680;48.800;9.680;2023-02-10T06:03:57;47.57;;;30.90;;
15159;SDS011;7680;48.800;9.680;2023-02-10T06:06:30;46.33;;;30.77;;
15159;SDS011;7680;48.800;9.680;2023-02-10T06:09:05;44.90;;;28.63;;
15159;SDS011;7680;48.800;9.680;2023-02-10T06:11:38;45.27;;;29.43;;
15159;SDS011;7680;48.800;9.680;2023-02-10T06:14:11;41.63;;;28.70;;
15159;SDS011;7680;48.800;9.680;2023-02-10T06:16:46;43.80;;;29.63;;
15159;SDS011;7680;48.800;9.680;2023-02-10T06:19:19;42.67;;;29.23;;
15159;SDS011;7680;48.800;9.680;2023-02-10T06:21:52;43.60;;;29.97;;
15159;SDS011;7680;48.800;9.680;2023-02-10T06:24:27;45.47;;;28.23;;
15159;SDS011;7680;48.800;9.680;2023-02-10T06:27:00;43.90;;;29.73;;
15159;SDS011;7680;48.800;9.680;2023-02-10T06:29:33;44.03;;;30.07;;
15159;SDS011;7680;48.800;9.680;2023-02-10T06:32:09;44.97;;;29.47;;
15159;SDS011;7680;48.800;9.680;2023-02-10T06:34:42;44.97;;;28.90;;
15159;SDS011;7680;48.800;9.680;2023-02-10T06:37:16;44.10;;;30.03;;
15159;SDS011;7680;48.800;9.680;2023-02-10T06:39:51;45.80;;;31.33;;
15159;SDS011;7680;48.800;9.680;2023-02-10T06:42:24;47.67;;;31.60;;
15159;SDS011;7680;48.800;9.680;2023-02-10T06:44:57;50.23;;;31.70;;
15159;SDS011;7680;48.800;9.680;2023-02-10T06:47:30;47.03;;;30.07;;
15159;SDS011;7680;48.800;9.680;2023-02-10T06:50:04;43.60;;;30.77;;
15159;SDS011;7680;48.800;9.680;2023-02-10T06:52:38;43.73;;;29.10;;
15159;SDS011;7680;48.800;9.680;2023-02-10T06:55:14;44.83;;;29.53;;
15159;SDS011;7680;48.800;9.680;2023-02-10T06:57:48;45.50;;;30.23;;
15159;SDS011;7680;48.800;9.680;2023-02-10T07:00:21;43.47;;;29.93;;
15159;SDS011;7680;48.800;9.680;2023-02-10T07:02:55;43.97;;;30.00;;
15159;SDS011;7680;48.800;9.680;2023-02-10T07:05:28;43.20;;;29.60;;
15159;SDS011;7680;48.800;9.680;2023-02-10T07:08:02;47.07;;;30.20;;
15159;SDS011;7680;48.800;9.680;2023-02-10T07:10:40;45.63;;;30.70;;
15159;SDS011;7680;48.800;9.680;2023-02-10T07:13:13;49.63;;;31.60;;
15159;SDS011;7680;48.800;9.680;2023-02-10T07:15:47;46.40;;;29.70;;
15159;SDS011;7680;48.800;9.680;2023-02-10T07:18:20;48.07;;;30.70;;
15159;SDS011;7680;48.800;9.680;2023-02-10T07:20:54;45.73;;;30.73;;
15159;SDS011;7680;48.800;9.680;2023-02-10T07:23:27;39.57;;;29.90;;
15159;SDS011;7680;48.800;9.680;2023-02-10T07:26:08;47.93;;;29.53;;
15159;SDS011;7680;48.800;9.680;2023-02-10T07:28:43;42.00;;;31.43;;
15159;SDS011;7680;48.800;9.680;2023-02-10T07:31:16;43.97;;;29.23;;
15159;SDS011;7680;48.800;9.680;2023-02-10T07:33:50;43.27;;;28.63;;
15159;SDS011;7680;48.800;9.680;2023-02-10T07:36:24;40.60;;;29.07;;
15159;SDS011;7680;48.800;9.680;2023-02-10T07:38:57;45.63;;;31.87;;
15159;SDS011;7680;48.800;9.680;2023-02-10T07:41:32;45.40;;;30.30;;
15159;SDS011;7680;48.800;9.680;2023-02-10T07:44:05;41.70;;;28.40;;
15159;SDS011;7680;48.800;9.680;2023-02-10T07:46:38;44.20;;;30.30;;
15159;SDS011;7680;48.800;9.680;2023-02-10T07:49:11;42.97;;;31.27;;
15159;SDS011;7680;48.800;9.680;2023-02-10T07:51:45;45.27;;;31.10;;
15159;SDS011;7680;48.800;9.680;2023-02-10T07:54:18;44.83;;;30.27;;
15159;SDS011;7680;48.800;9.680;2023-02-10T07:56:53;44.30;;;30.37;;
15159;SDS011;7680;48.800;9.680;2023-02-10T07:59:26;44.53;;;30.70;;
15159;SDS011;7680;48.800;9.680;2023-02-10T08:01:59;43.90;;;31.63;;
15159;SDS011;7680;48.800;9.680;2023-02-10T08:04:32;44.53;;;31.37;;
15159;SDS011;7680;48.800;9.680;2023-02-10T08:07:05;42.43;;;30.77;;
15159;SDS011;7680;48.800;9.680;2023-02-10T08:09:39;43.50;;;30.87;;
15159;SDS011;7680;48.800;9.680;2023-02-10T08:12:13;45.40;;;31.43;;
15159;SDS011;7680;48.800;9.680;2023-02-10T08:14:46;46.73;;;30.77;;
15159;SDS011;7680;48.800;9.680;2023-02-10T08:17:20;45.67;;;31.40;;
15159;SDS011;7680;48.800;9.680;2023-02-10T08:19:53;42.07;;;30.83;;
15159;SDS011;7680;48.800;9.680;2023-02-10T08:22:26;48.87;;;32.97;;
15159;SDS011;7680;48.800;9.680;2023-02-10T08:25:00;45.53;;;30.67;;
15159;SDS011;7680;48.800;9.680;2023-02-10T08:27:34;45.63;;;30.87;;
15159;SDS011;7680;48.800;9.680;2023-02-10T08:30:08;45.13;;;32.70;;
15159;SDS011;7680;48.800;9.680;2023-02-10T08:32:42;47.80;;;30.80;;
15159;SDS011;7680;48.800;9.680;2023-02-10T08:35:18;48.93;;;33.07;;
15159;SDS011;7680;48.800;9.680;2023-02-10T08:37:51;47.27;;;32.87;;
15159;SDS011;7680;48.800;9.680;2023-02-10T08:40:25;42.60;;;31.80;;
15159;SDS011;7680;48.800;9.680;2023-02-10T08:42:59;39.33;;;30.83;;
15159;SDS011;7680;48.800;9.680;2023-02-10T08:45:33;41.13;;;30.97;;
15159;SDS011;7680;48.800;9.680;2023-02-10T08:48:09;45.33;;;31.87;;
15159;SDS011;7680;48.800;9.680;2023-02-10T08:50:42;49.50;;;34.17;;
15159;SDS011;7680;48.800;9.680;2023-02-10T08:53:19;45.47;;;33.53;;
15159;SDS011;7680;48.800;9.680;2023-02-10T08:55:55;44.23;;;32.67;;
15159;SDS011;7680;48.800;9.680;2023-02-10T08:58:32;46.90;;;32.37;;
15159;SDS011;7680;48.800;9.680;2023-02-10T09:01:09;47.67;;;33.10;;
15159;SDS011;7680;48.800;9.680;2023-02-10T09:03:44;44.50;;;33.87;;
15159;SDS011;7680;48.800;9.680;2023-02-10T09:06:19;46.73;;;34.13;;
15159;SDS011;7680;48.800;9.680;2023-02-10T09:08:54;46.50;;;33.33;;
15159;SDS011;7680;48.800;9.680;2023-02-10T09:11:27;44.43;;;33.93;;
15159;SDS011;7680;48.800;9.680;2023-02-10T09:14:01;45.90;;;33.57;;
15159;SDS011;7680;48.800;9.680;2023-02-10T09:16:35;44.20;;;32.07;;
15159;SDS011;7680;48.800;9.680;2023-02-10T09:19:08;45.73;;;34.50;;
15159;SDS011;7680;48.800;9.680;2023-02-10T09:21:42;46.47;;;34.13;;
15159;SDS011;7680;48.800;9.680;2023-02-10T09:24:18;47.23;;;33.83;;
15159;SDS011;7680;48.800;9.680;2023-02-10T09:26:51;42.37;;;32.80;;
15159;SDS011;7680;48.800;9.680;2023-02-10T09:29:25;48.23;;;34.83;;
15159;SDS011;7680;48.800;9.680;2023-02-10T09:31:58;44.43;;;33.53;;
15159;SDS011;7680;48.800;9.680;2023-02-10T09:34:32;45.30;;;34.20;;
15159;SDS011;7680;48.800;9.680;2023-02-10T09:37:05;43.77;;;33.47;;
15159;SDS011;7680;48.800;9.680;2023-02-10T09:39:38;46.50;;;33.47;;
15159;SDS011;7680;48.800;9.680;2023-02-10T09:42:14;42.63;;;34.07;;
15159;SDS011;7680;48.800;9.680;2023-02-10T09:45:01;44.63;;;34.53;;
15159;SDS011;7680;48.800;9.680;2023-02-10T09:47:43;44.43;;;33.43;;
15159;SDS011;7680;48.800;9.680;2023-02-10T09:50:23;43.23;;;32.73;;
15159;SDS011;7680;48.800;9.680;2023-02-10T09:53:07;46.93;;;33.60;;
15159;SDS011;7680;48.800;9.680;2023-02-10T09:55:45;44.13;;;33.03;;
15159;SDS011;7680;48.800;9.680;2023-02-10T09:58:22;43.77;;;33.20;;
15159;SDS011;7680;48.800;9.680;2023-02-10T10:01:05;42.37;;;32.60;;
15159;SDS011;7680;48.800;9.680;2023-02-10T10:03:50;41.97;;;32.20;;
15159;SDS011;7680;48.800;9.680;2023-02-10T10:06:30;43.63;;;32.03;;
15159;SDS011;7680;48.800;9.680;2023-02-10T10:09:12;45.47;;;33.90;;
15159;SDS011;7680;48.800;9.680;2023-02-10T10:11:56;43.63;;;33.43;;
15159;SDS011;7680;48.800;9.680;2023-02-10T10:14:33;41.53;;;33.73;;
15159;SDS011;7680;48.800;9.680;2023-02-10T10:17:14;40.43;;;32.37;;
15159;SDS011;7680;48.800;9.680;2023-02-10T10:20:22;46.33;;;33.17;;
15159;SDS011;7680;48.800;9.680;2023-02-10T10:23:15;45.07;;;34.57;;
15159;SDS011;7680;48.800;9.680;2023-02-10T10:26:10;41.27;;;32.43;;
15159;SDS011;7680;48.800;9.680;2023-02-10T10:29:10;42.27;;;31.57;;
15159;SDS011;7680;48.800;9.680;2023-02-10T10:31:55;40.13;;;31.33;;
15159;SDS011;7680;48.800;9.680;2023-02-10T10:34:41;39.23;;;30.73;;
15159;SDS011;7680;48.800;9.680;2023-02-10T10:37:24;39.57;;;30.73;;
15159;SDS011;7680;48.800;9.680;2023-02-10T10:39:59;40.83;;;31.97;;
15159;SDS011;7680;48.800;9.680;2023-02-10T10:42:38;40.53;;;30.40;;
15159;SDS011;7680;48.800;9.680;2023-02-10T10:45:17;39.43;;;29.73;;
15159;SDS011;7680;48.800;9.680;2023-02-10T10:47:56;37.93;;;30.50;;
15159;SDS011;7680;48.800;9.680;2023-02-10T10:50:37;36.03;;;29.00;;
15159;SDS011;7680;48.800;9.680;2023-02-10T10:53:13;38.43;;;29.67;;
15159;SDS011;7680;48.800;9.680;2023-02-10T10:55:51;35.77;;;28.47;;
15159;SDS011;7680;48.800;9.680;2023-02-10T10:58:27;36.47;;;28.80;;
15159;SDS011;7680;48.800;9.680;2023-02-10T11:01:04;31.80;;;26.53;;
15159;SDS011;7680;48.800;9.680;2023-02-10T11:03:38;31.97;;;25.67;;
15159;SDS011;7680;48.800;9.680;2023-02-10T11:06:13;30.27;;;25.13;;
15159;SDS011;7680;48.800;9.680;2023-02-10T11:08:52;33.30;;;25.33;;
15159;SDS011;7680;48.800;9.680;2023-02-10T11:11:30;32.43;;;26.23;;
15159;SDS011;7680;48.800;9.680;2023-02-10T11:14:12;33.17;;;26.50;;
15159;SDS011;7680;48.800;9.680;2023-02-10T11:16:48;28.00;;;24.80;;
15159;SDS011;7680;48.800;9.680;2023-02-10T11:19:24;36.27;;;25.57;;
15159;SDS011;7680;48.800;9.680;2023-02-10T11:22:14;31.80;;;23.77;;
15159;SDS011;7680;48.800;9.680;2023-02-10T11:24:49;31.80;;;25.57;;
15159;SDS011;7680;48.800;9.680;2023-02-10T11:27:24;32.53;;;25.47;;
15159;SDS011;7680;48.800;9.680;2023-02-10T11:29:58;32.03;;;26.33;;
15159;SDS011;7680;48.800;9.680;2023-02-10T11:32:33;30.07;;;25.03;;
15159;SDS011;7680;48.800;9.680;2023-02-10T11:35:14;33.73;;;25.93;;
15159;SDS011;7680;48.800;9.680;2023-02-10T11:37:52;31.20;;;25.53;;
15159;SDS011;7680;48.800;9.680;2023-02-10T11:40:28;29.90;;;24.57;;
15159;SDS011;7680;48.800;9.680;2023-02-10T11:43:04;32.17;;;24.27;;
15159;SDS011;7680;48.800;9.680;2023-02-10T11:45:49;30.07;;;24.40;;
15159;SDS011;7680;48.800;9.680;2023-02-10T11:48:28;29.90;;;23.23;;
15159;SDS011;7680;48.800;9.680;2023-02-10T11:51:06;28.23;;;23.10;;
15159;SDS011;7680;48.800;9.680;2023-02-10T11:53:50;26.70;;;21.73;;
15159;SDS011;7680;48.800;9.680;2023-02-10T11:56:24;26.97;;;21.50;;
15159;SDS011;7680;48.800;9.680;2023-02-10T11:59:27;25.37;;;21.07;;
15159;SDS011;7680;48.800;9.680;2023-02-10T12:02:09;24.20;;;20.87;;
15159;SDS011;7680;48.800;9.680;2023-02-10T12:04:59;25.80;;;20.70;;
15159;SDS011;7680;48.800;9.680;2023-02-10T12:07:50;26.90;;;20.77;;
15159;SDS011;7680;48.800;9.680;2023-02-10T12:10:37;26.67;;;21.07;;
15159;SDS011;7680;48.800;9.680;2023-02-10T12:13:19;24.03;;;19.80;;
15159;SDS011;7680;48.800;9.680;2023-02-10T12:16:04;26.20;;;21.23;;
15159;SDS011;7680;48.800;9.680;2023-02-10T12:18:53;26.77;;;20.87;;
15159;SDS011;7680;48.800;9.680;2023-02-10T12:21:43;25.67;;;21.40;;
15159;SDS011;7680;48.800;9.680;2023-02-10T12:27:43;25.00;;;21.43;;
15159;SDS011;7680;48.800;9.680;2023-02-10T12:30:32;27.50;;;20.87;;
15159;SDS011;7680;48.800;9.680;2023-02-10T12:33:21;26.60;;;20.93;;
15159;SDS011;7680;48.800;9.680;2023-02-10T12:36:14;27.27;;;22.23;;
15159;SDS011;7680;48.800;9.680;2023-02-10T12:39:03;26.40;;;21.90;;
15159;SDS011;7680;48.800;9.680;2023-02-10T12:41:50;25.77;;;21.70;;
15159;SDS011;7680;48.800;9.680;2023-02-10T12:44:37;24.17;;;21.33;;
15159;SDS011;7680;48.800;9.680;2023-02-10T12:47:24;29.33;;;23.03;;
15159;SDS011;7680;48.800;9.680;2023-02-10T12:53:11;25.70;;;21.90;;
15159;SDS011;7680;48.800;9.680;2023-02-10T12:55:52;26.33;;;21.57;;
15159;SDS011;7680;48.800;9.680;2023-02-10T12:58:29;30.17;;;23.07;;
15159;SDS011;7680;48.800;9.680;2023-02-10T13:01:10;30.27;;;23.93;;
15159;SDS011;7680;48.800;9.680;2023-02-10T13:03:50;30.70;;;23.87;;
15159;SDS011;7680;48.800;9.680;2023-02-10T13:06:32;28.53;;;22.83;;
15159;SDS011;7680;48.800;9.680;2023-02-10T13:09:11;28.83;;;22.20;;
15159;SDS011;7680;48.800;9.680;2023-02-10T13:11:51;27.87;;;23.23;;
15159;SDS011;7680;48.800;9.680;2023-02-10T13:14:38;28.97;;;23.43;;
15159;SDS011;7680;48.800;9.680;2023-02-10T13:17:15;26.67;;;22.43;;
15159;SDS011;7680;48.800;9.680;2023-02-10T13:19:50;27.30;;;23.33;;
15159;SDS011;7680;48.800;9.680;2023-02-10T13:22:34;26.63;;;22.20;;
15159;SDS011;7680;48.800;9.680;2023-02-10T13:25:16;26.80;;;21.63;;
15159;SDS011;7680;48.800;9.680;2023-02-10T13:27:57;27.23;;;22.17;;
15159;SDS011;7680;48.800;9.680;2023-02-10T13:30:48;25.27;;;22.53;;
15159;SDS011;7680;48.800;9.680;2023-02-10T13:33:52;28.23;;;22.97;;
15159;SDS011;7680;48.800;9.680;2023-02-10T13:36:34;28.83;;;21.80;;
15159;SDS011;7680;48.800;9.680;2023-02-10T13:39:13;26.47;;;22.20;;
15159;SDS011;7680;48.800;9.680;2023-02-10T13:41:51;27.20;;;22.30;;
15159;SDS011;7680;48.800;9.680;2023-02-10T13:44:41;31.10;;;22.83;;
15159;SDS011;7680;48.800;9.680;2023-02-10T13:47:22;26.17;;;21.83;;
15159;SDS011;7680;48.800;9.680;2023-02-10T13:50:04;27.67;;;23.47;;
15159;SDS011;7680;48.800;9.680;2023-02-10T13:52:49;27.60;;;21.43;;
15159;SDS011;7680;48.800;9.680;2023-02-10T13:55:27;26.97;;;23.10;;
15159;SDS011;7680;48.800;9.680;2023-02-10T13:58:27;26.57;;;22.90;;
15159;SDS011;7680;48.800;9.680;2023-02-10T14:04:25;24.77;;;21.33;;
15159;SDS011;7680;48.800;9.680;2023-02-10T14:07:12;25.83;;;21.67;;
15159;SDS011;7680;48.800;9.680;2023-02-10T14:09:48;26.27;;;20.57;;
15159;SDS011;7680;48.800;9.680;2023-02-10T14:12:33;26.83;;;22.20;;
15159;SDS011;7680;48.800;9.680;2023-02-10T14:15:17;28.70;;;23.33;;
15159;SDS011;7680;48.800;9.680;2023-02-10T14:17:54;27.13;;;22.20;;
15159;SDS011;7680;48.800;9.680;2023-02-10T14:20:32;27.67;;;22.97;;
15159;SDS011;7680;48.800;9.680;2023-02-10T14:23:15;26.87;;;22.27;;
15159;SDS011;7680;48.800;9.680;2023-02-10T14:25:54;27.10;;;22.63;;
15159;SDS011;7680;48.800;9.680;2023-02-10T14:28:31;28.97;;;21.83;;
15159;SDS011;7680;48.800;9.680;2023-02-10T14:31:10;28.17;;;22.57;;
15159;SDS011;7680;48.800;9.680;2023-02-10T14:33:52;28.53;;;22.23;;
15159;SDS011;7680;48.800;9.680;2023-02-10T14:36:27;28.50;;;22.07;;
15159;SDS011;7680;48.800;9.680;2023-02-10T14:39:02;28.80;;;23.07;;
15159;SDS011;7680;48.800;9.680;2023-02-10T14:41:36;28.27;;;22.77;;
15159;SDS011;7680;48.800;9.680;2023-02-10T14:44:14;26.33;;;21.03;;
15159;SDS011;7680;48.800;9.680;2023-02-10T14:46:58;25.07;;;21.03;;
15159;SDS011;7680;48.800;9.680;2023-02-10T14:49:31;26.53;;;20.70;;
15159;SDS011;7680;48.800;9.680;2023-02-10T14:52:16;22.50;;;19.37;;
15159;SDS011;7680;48.800;9.680;2023-02-10T14:55:26;24.77;;;19.17;;
15159;SDS011;7680;48.800;9.680;2023-02-10T14:58:03;24.60;;;19.70;;
15159;SDS011;7680;48.800;9.680;2023-02-10T15:00:42;26.00;;;20.20;;
15159;SDS011;7680;48.800;9.680;2023-02-10T15:03:40;25.63;;;21.50;;
15159;SDS011;7680;48.800;9.680;2023-02-10T15:06:15;24.20;;;18.93;;
15159;SDS011;7680;48.800;9.680;2023-02-10T15:08:51;24.67;;;19.17;;
15159;SDS011;7680;48.800;9.680;2023-02-10T15:11:30;22.70;;;18.67;;
15159;SDS011;7680;48.800;9.680;2023-02-10T15:14:26;19.73;;;17.07;;
15159;SDS011;7680;48.800;9.680;2023-02-10T15:17:06;22.40;;;17.07;;
15159;SDS011;7680;48.800;9.680;2023-02-10T15:22:36;20.00;;;17.60;;
15159;SDS011;7680;48.800;9.680;2023-02-10T15:25:30;21.83;;;17.03;;
15159;SDS011;7680;48.800;9.680;2023-02-10T15:28:21;17.87;;;15.97;;
15159;SDS011;7680;48.800;9.680;2023-02-10T15:31:03;18.17;;;16.27;;
15159;SDS011;7680;48.800;9.680;2023-02-10T15:33:39;21.27;;;18.17;;
15159;SDS011;7680;48.800;9.680;2023-02-10T15:36:23;21.17;;;17.00;;
15159;SDS011;7680;48.800;9.680;2023-02-10T15:38:59;19.47;;;17.33;;
15159;SDS011;7680;48.800;9.680;2023-02-10T15:41:39;19.60;;;16.60;;
15159;SDS011;7680;48.800;9.680;2023-02-10T15:44:33;18.87;;;15.73;;
15159;SDS011;7680;48.800;9.680;2023-02-10T15:47:24;21.73;;;18.10;;
15159;SDS011;7680;48.800;9.680;2023-02-10T15:50:00;18.77;;;16.53;;
15159;SDS011;7680;48.800;9.680;2023-02-10T15:52:33;26.37;;;20.50;;
15159;SDS011;7680;48.800;9.680;2023-02-10T15:55:17;23.63;;;19.73;;
15159;SDS011;7680;48.800;9.680;2023-02-10T15:57:54;20.97;;;18.63;;